createdAt,value
2018-08-12T00:01:21.510Z,3.80
2018-08-12T00:03:23.676Z,3.83
2018-08-12T00:05:25.954Z,3.70
2018-08-12T00:07:29.212Z,3.87
2018-08-12T00:09:31.472Z,4.03
2018-08-12T00:11:34.453Z,3.90
2018-08-12T00:13:36.645Z,4.63
2018-08-12T00:15:38.837Z,4.37
2018-08-12T00:17:41.111Z,3.87
2018-08-12T00:19:43.366Z,4.60
2018-08-12T00:21:45.561Z,4.30
2018-08-12T00:23:47.717Z,3.80
2018-08-12T00:25:49.854Z,3.93
2018-08-12T00:27:52.034Z,4.23
2018-08-12T00:29:54.218Z,4.13
2018-08-12T00:31:56.438Z,4.03
2018-08-12T00:33:58.620Z,4.50
2018-08-12T00:36:00.775Z,4.10
2018-08-12T00:38:02.945Z,4.60
2018-08-12T00:40:05.909Z,3.53
2018-08-12T00:42:08.110Z,4.10
2018-08-12T00:44:10.298Z,4.00
2018-08-12T00:46:12.549Z,3.80
2018-08-12T00:48:14.721Z,4.30
2018-08-12T00:50:17.418Z,4.00
2018-08-12T00:52:19.929Z,4.03
2018-08-12T00:54:22.112Z,3.60
2018-08-12T00:56:24.311Z,3.97
2018-08-12T00:58:26.508Z,3.70
2018-08-12T01:00:28.688Z,3.97
2018-08-12T01:02:30.841Z,4.07
2018-08-12T01:04:32.997Z,4.43
2018-08-12T01:06:35.161Z,4.20
2018-08-12T01:08:37.291Z,4.20
2018-08-12T01:10:39.477Z,4.23
2018-08-12T01:12:41.612Z,4.00
2018-08-12T01:14:43.729Z,3.97
2018-08-12T01:16:45.892Z,4.10
2018-08-12T01:18:48.004Z,4.13
2018-08-12T01:20:50.153Z,4.10
2018-08-12T01:22:52.567Z,3.97
2018-08-12T01:24:54.733Z,4.87
2018-08-12T01:26:56.928Z,4.60
2018-08-12T01:28:59.144Z,3.83
2018-08-12T01:31:01.329Z,4.00
2018-08-12T01:33:03.493Z,4.90
2018-08-12T01:35:06.856Z,4.20
2018-08-12T01:37:09.093Z,4.27
2018-08-12T01:39:11.263Z,4.60
2018-08-12T01:41:13.438Z,4.67
2018-08-12T01:43:15.777Z,5.00
2018-08-12T01:45:18.794Z,4.80
2018-08-12T01:47:20.941Z,5.00
2018-08-12T01:49:23.213Z,4.80
2018-08-12T01:51:25.535Z,5.20
2018-08-12T01:53:27.687Z,5.17
2018-08-12T01:55:29.836Z,5.20
2018-08-12T01:57:32.047Z,5.03
2018-08-12T01:59:34.199Z,4.70
2018-08-12T02:01:36.366Z,6.10
2018-08-12T02:03:38.560Z,4.93
2018-08-12T02:05:40.705Z,5.30
2018-08-12T02:07:43.269Z,5.87
2018-08-12T02:09:45.421Z,5.67
2018-08-12T02:11:47.633Z,6.50
2018-08-12T02:13:50.031Z,5.60
2018-08-12T02:15:52.480Z,6.07
2018-08-12T02:17:54.636Z,5.40
2018-08-12T02:19:56.792Z,5.57
2018-08-12T02:21:58.961Z,5.73
2018-08-12T02:24:01.173Z,5.00
2018-08-12T02:26:03.373Z,5.80
2018-08-12T02:28:05.553Z,6.07
2018-08-12T02:30:08.625Z,4.67
2018-08-12T02:32:10.803Z,5.80
2018-08-12T02:34:12.953Z,5.60
2018-08-12T02:36:15.163Z,5.50
2018-08-12T02:38:17.291Z,5.47
2018-08-12T02:40:19.437Z,5.43
2018-08-12T02:42:21.638Z,6.03
2018-08-12T02:44:23.793Z,6.10
2018-08-12T02:46:25.953Z,5.67
2018-08-12T02:48:28.099Z,4.87
2018-08-12T02:50:30.271Z,5.33
2018-08-12T02:52:32.449Z,5.03
2018-08-12T02:54:34.618Z,5.30
2018-08-12T02:56:36.792Z,5.90
2018-08-12T02:58:38.977Z,5.20
2018-08-12T03:00:41.177Z,5.40
2018-08-12T03:02:43.363Z,5.70
2018-08-12T03:04:45.514Z,5.37
2018-08-12T03:06:47.652Z,5.20
2018-08-12T03:08:49.799Z,5.20
2018-08-12T03:10:51.954Z,5.33
2018-08-12T03:12:54.089Z,6.10
2018-08-12T03:14:56.225Z,5.20
2018-08-12T03:16:58.401Z,5.70
2018-08-12T03:19:00.544Z,6.23
2018-08-12T03:21:02.759Z,6.13
2018-08-12T03:23:05.066Z,6.00
2018-08-12T03:25:08.209Z,6.10
2018-08-12T03:27:10.389Z,6.43
2018-08-12T03:29:12.604Z,6.17
2018-08-12T03:31:14.770Z,5.30
2018-08-12T03:33:16.979Z,5.90
2018-08-12T03:35:19.089Z,6.13
2018-08-12T03:37:21.238Z,5.80
2018-08-12T03:39:23.402Z,5.63
2018-08-12T03:41:25.833Z,5.70
2018-08-12T03:43:27.989Z,5.83
2018-08-12T03:45:30.145Z,5.70
2018-08-12T03:47:32.389Z,5.67
2018-08-12T03:49:34.565Z,5.40
2018-08-12T03:51:36.721Z,5.70
2018-08-12T03:53:38.873Z,6.13
2018-08-12T03:55:41.683Z,6.20
2018-08-12T03:57:43.852Z,5.90
2018-08-12T03:59:46.045Z,6.33
2018-08-12T04:01:48.221Z,5.47
2018-08-12T04:03:50.378Z,5.90
2018-08-12T04:05:52.737Z,6.50
2018-08-12T04:07:54.844Z,6.73
2018-08-12T04:09:57.001Z,5.90
2018-08-12T04:11:59.193Z,6.57
2018-08-12T04:14:01.361Z,6.20
2018-08-12T04:16:03.547Z,7.37
2018-08-12T04:18:05.711Z,7.20
2018-08-12T04:20:08.851Z,7.43
2018-08-12T04:22:10.990Z,8.00
2018-08-12T04:24:13.148Z,8.50
2018-08-12T04:26:15.337Z,8.63
2018-08-12T04:28:17.485Z,8.10
2018-08-12T04:30:19.641Z,7.53
2018-08-12T04:32:21.818Z,6.33
2018-08-12T04:34:23.957Z,7.57
2018-08-12T04:36:26.094Z,7.30
2018-08-12T04:38:28.265Z,7.30
2018-08-12T04:40:30.430Z,8.27
2018-08-12T04:42:32.653Z,7.37
2018-08-12T04:44:34.839Z,8.60
2018-08-12T04:46:37.493Z,7.70
2018-08-12T04:48:39.640Z,8.00
2018-08-12T04:50:41.810Z,8.50
2018-08-12T04:52:44.017Z,7.93
2018-08-12T04:54:46.173Z,8.40
2018-08-12T04:56:48.325Z,7.67
2018-08-12T04:58:50.446Z,8.13
2018-08-12T05:00:52.674Z,8.93
2018-08-12T05:02:54.841Z,8.57
2018-08-12T05:04:57.005Z,9.67
2018-08-12T05:06:59.187Z,8.83
2018-08-12T05:09:01.493Z,8.60
2018-08-12T05:11:03.673Z,7.97
2018-08-12T05:15:14.933Z,8.40
2018-08-12T05:17:17.140Z,8.70
2018-08-12T05:19:19.291Z,8.90
2018-08-12T05:21:21.474Z,9.43
2018-08-12T05:23:23.637Z,9.13
2018-08-12T05:25:25.835Z,7.80
2018-08-12T05:27:34.876Z,7.93
2018-08-12T05:29:37.033Z,7.83
2018-08-12T05:31:39.254Z,7.70
2018-08-12T05:33:41.557Z,7.63
2018-08-12T05:35:43.696Z,8.33
2018-08-12T05:37:45.861Z,8.23
2018-08-12T05:39:48.029Z,8.73
2018-08-12T05:41:50.173Z,8.27
2018-08-12T05:43:52.347Z,8.00
2018-08-12T05:45:54.480Z,7.80
2018-08-12T05:47:56.652Z,8.27
2018-08-12T05:49:58.846Z,7.83
2018-08-12T05:52:01.131Z,7.80
2018-08-12T05:54:03.313Z,7.23
2018-08-12T05:56:05.470Z,8.13
2018-08-12T05:58:07.664Z,7.20
2018-08-12T06:00:10.948Z,7.20
2018-08-12T06:02:13.103Z,6.53
2018-08-12T06:04:15.323Z,6.90
2018-08-12T06:06:17.657Z,6.30
2018-08-12T06:08:19.829Z,6.80
2018-08-12T06:10:22.026Z,7.20
2018-08-12T06:12:24.209Z,5.73
2018-08-12T06:14:26.381Z,5.80
2018-08-12T06:16:28.660Z,6.20
2018-08-12T06:18:30.829Z,6.10
2018-08-12T06:20:32.964Z,5.33
2018-08-12T06:22:35.175Z,5.80
2018-08-12T06:24:37.337Z,5.80
2018-08-12T06:26:39.514Z,5.13
2018-08-12T06:28:41.709Z,5.10
2018-08-12T06:30:44.270Z,5.10
2018-08-12T06:32:46.441Z,5.00
2018-08-12T06:34:48.635Z,4.80
2018-08-12T06:36:50.868Z,4.73
2018-08-12T06:38:53.022Z,4.60
2018-08-12T06:40:55.160Z,5.30
2018-08-12T06:42:57.321Z,5.40
2018-08-12T06:44:59.486Z,4.93
2018-08-12T06:47:01.697Z,4.57
2018-08-12T06:49:03.861Z,4.27
2018-08-12T06:51:06.005Z,4.60
2018-08-12T06:53:08.545Z,4.43
2018-08-12T06:55:11.783Z,4.30
2018-08-12T06:57:13.953Z,4.73
2018-08-12T06:59:16.145Z,4.50
2018-08-12T07:01:18.307Z,4.50
2018-08-12T07:03:20.474Z,4.20
2018-08-12T07:05:22.624Z,3.67
2018-08-12T07:07:24.804Z,4.00
2018-08-12T07:09:27.050Z,4.00
2018-08-12T07:11:29.240Z,4.30
2018-08-12T07:13:31.419Z,3.87
2018-08-12T07:15:33.718Z,3.60
2018-08-12T07:17:35.852Z,3.47
2018-08-12T07:19:38.157Z,4.33
2018-08-12T07:21:40.315Z,3.50
2018-08-12T07:23:42.467Z,3.70
2018-08-12T07:25:44.631Z,3.70
2018-08-12T07:27:46.816Z,3.70
2018-08-12T07:29:48.970Z,3.53
2018-08-12T07:31:51.132Z,3.40
2018-08-12T07:33:53.594Z,3.53
2018-08-12T07:35:55.809Z,4.20
2018-08-12T07:37:57.965Z,4.97
2018-08-12T07:40:00.109Z,3.80
2018-08-12T07:42:02.439Z,4.00
2018-08-12T07:44:04.632Z,3.50
2018-08-12T07:46:06.793Z,3.20
2018-08-12T07:48:08.961Z,3.33
2018-08-12T07:50:11.239Z,2.80
2018-08-12T07:52:13.446Z,3.20
2018-08-12T07:54:15.597Z,3.40
2018-08-12T07:56:17.784Z,3.67
2018-08-12T07:58:19.919Z,4.27
2018-08-12T08:00:22.273Z,3.60
2018-08-12T08:02:24.811Z,4.00
2018-08-12T08:04:27.107Z,3.57
2018-08-12T08:06:29.518Z,3.00
2018-08-12T08:08:31.681Z,3.40
2018-08-12T08:10:33.828Z,3.40
2018-08-12T08:12:36.747Z,3.73
2018-08-12T08:14:38.832Z,3.70
2018-08-12T08:16:41.030Z,3.60
2018-08-12T08:18:43.293Z,3.10
2018-08-12T08:20:45.461Z,3.70
2018-08-12T08:22:47.633Z,4.03
2018-08-12T08:24:49.793Z,3.40
2018-08-12T08:26:51.985Z,3.97
2018-08-12T08:28:54.136Z,3.50
2018-08-12T08:30:56.268Z,3.90
2018-08-12T08:32:58.401Z,5.80
2018-08-12T08:35:00.572Z,4.50
2018-08-12T08:37:02.946Z,3.50
2018-08-12T08:39:07.088Z,3.80
2018-08-12T08:41:09.247Z,3.60
2018-08-12T08:43:11.411Z,3.90
2018-08-12T08:45:15.093Z,4.60
2018-08-12T08:47:17.277Z,4.40
2018-08-12T08:49:19.424Z,4.17
2018-08-12T08:51:21.574Z,3.87
2018-08-12T08:53:23.748Z,3.50
2018-08-12T08:55:25.889Z,4.63
2018-08-12T08:57:28.370Z,4.27
2018-08-12T08:59:30.618Z,4.00
2018-08-12T09:01:32.786Z,12.70
2018-08-12T09:03:35.118Z,4.20
2018-08-12T09:05:37.301Z,5.13
2018-08-12T09:07:40.216Z,4.20
2018-08-12T09:09:42.541Z,4.10
2018-08-12T09:11:44.713Z,4.20
2018-08-12T09:13:46.861Z,3.93
2018-08-12T09:15:49.094Z,3.97
2018-08-12T09:17:51.245Z,4.17
2018-08-12T09:19:53.408Z,4.70
2018-08-12T09:21:55.624Z,4.40
2018-08-12T09:23:57.812Z,3.93
2018-08-12T09:25:59.921Z,4.00
2018-08-12T09:28:02.137Z,4.07
2018-08-12T09:30:08.572Z,4.33
2018-08-12T09:32:10.726Z,4.20
2018-08-12T09:34:12.908Z,4.13
2018-08-12T09:36:15.083Z,4.00
2018-08-12T09:38:17.213Z,3.67
2018-08-12T09:40:19.383Z,4.10
2018-08-12T09:42:21.538Z,4.67
2018-08-12T09:44:23.718Z,4.60
2018-08-12T09:46:25.881Z,4.80
2018-08-12T09:48:28.011Z,5.10
2018-08-12T09:50:30.322Z,6.03
2018-08-12T09:52:32.436Z,5.67
2018-08-12T09:54:34.573Z,4.97
2018-08-12T09:56:36.753Z,5.10
2018-08-12T09:58:38.896Z,6.13
2018-08-12T10:00:41.163Z,5.20
2018-08-12T10:02:43.347Z,5.00
2018-08-12T10:04:45.458Z,5.17
2018-08-12T10:06:47.621Z,6.27
2018-08-12T10:08:50.113Z,6.40
2018-08-12T10:10:52.257Z,6.47
2018-08-12T10:12:54.626Z,5.80
2018-08-12T10:14:56.917Z,5.30
2018-08-12T10:16:59.131Z,6.77
2018-08-12T10:19:01.581Z,6.60
2018-08-12T10:21:04.026Z,7.70
2018-08-12T10:23:06.198Z,7.33
2018-08-12T10:25:09.253Z,7.53
2018-08-12T10:27:11.460Z,7.73
2018-08-12T10:29:13.712Z,8.40
2018-08-12T10:31:15.833Z,7.40
2018-08-12T10:33:18.039Z,7.60
2018-08-12T10:35:20.175Z,6.90
2018-08-12T10:37:22.338Z,6.43
2018-08-12T10:39:24.504Z,6.73
2018-08-12T10:41:26.659Z,6.00
2018-08-12T10:43:28.857Z,6.23
2018-08-12T10:45:31.024Z,6.90
2018-08-12T10:47:33.213Z,6.03
2018-08-12T10:49:35.383Z,7.10
2018-08-12T10:51:37.542Z,7.60
2018-08-12T10:53:39.726Z,6.40
2018-08-12T10:55:42.223Z,6.73
2018-08-12T10:57:45.594Z,7.17
2018-08-12T10:59:47.797Z,6.90
2018-08-12T11:01:49.968Z,6.83
2018-08-12T11:03:52.181Z,6.70
2018-08-12T11:05:54.341Z,7.07
2018-08-12T11:07:57.665Z,8.73
2018-08-12T11:09:59.877Z,8.73
2018-08-12T11:12:02.034Z,7.93
2018-08-12T11:14:04.444Z,6.97
2018-08-12T11:16:06.636Z,6.30
2018-08-12T11:18:08.821Z,6.93
2018-08-12T11:20:11.017Z,6.37
2018-08-12T11:22:13.186Z,6.20
2018-08-12T11:24:15.330Z,6.23
2018-08-12T11:26:17.480Z,6.10
2018-08-12T11:28:19.799Z,7.30
2018-08-12T11:30:21.959Z,7.70
2018-08-12T11:32:24.147Z,6.70
2018-08-12T11:34:26.482Z,7.50
2018-08-12T11:36:28.636Z,7.17
2018-08-12T11:38:30.817Z,7.23
2018-08-12T11:40:32.999Z,7.30
2018-08-12T11:42:35.211Z,7.23
2018-08-12T11:44:37.364Z,6.77
2018-08-12T11:46:39.563Z,7.17
2018-08-12T11:48:41.774Z,6.27
2018-08-12T11:50:43.957Z,6.40
2018-08-12T11:52:46.477Z,6.83
2018-08-12T11:54:48.629Z,7.37
2018-08-12T11:56:50.765Z,6.70
2018-08-12T11:58:52.928Z,6.70
2018-08-12T12:00:55.067Z,6.57
2018-08-12T12:02:57.210Z,7.23
2018-08-12T12:04:59.394Z,6.00
2018-08-12T12:07:01.553Z,6.30
2018-08-12T12:09:05.489Z,5.77
2018-08-12T12:11:07.900Z,6.50
2018-08-12T12:13:10.092Z,5.80
2018-08-12T12:15:13.204Z,6.50
2018-08-12T12:17:15.333Z,5.80
2018-08-12T12:19:17.497Z,5.40
2018-08-12T12:21:19.625Z,5.80
2018-08-12T12:23:21.832Z,5.90
2018-08-12T12:25:23.989Z,6.27
2018-08-12T12:27:26.197Z,5.30
2018-08-12T12:29:28.364Z,6.10
2018-08-12T12:31:30.697Z,6.80
2018-08-12T12:33:32.954Z,5.83
2018-08-12T12:35:35.173Z,6.50
2018-08-12T12:37:37.813Z,5.80
2018-08-12T12:39:39.961Z,6.10
2018-08-12T12:41:42.595Z,7.00
2018-08-12T12:43:45.869Z,6.23
2018-08-12T12:45:48.290Z,6.80
2018-08-12T12:47:50.490Z,6.23
2018-08-12T12:49:52.663Z,5.67
2018-08-12T12:51:54.851Z,5.97
2018-08-12T12:53:57.012Z,5.70
2018-08-12T12:55:59.161Z,5.63
2018-08-12T12:58:01.366Z,6.10
2018-08-12T13:00:04.771Z,5.33
2018-08-12T13:02:06.943Z,5.67
2018-08-12T13:04:09.085Z,5.40
2018-08-12T13:06:11.261Z,5.00
2018-08-12T13:08:14.574Z,5.00
2018-08-12T13:10:17.161Z,5.40
2018-08-12T13:12:19.395Z,5.40
2018-08-12T13:14:21.643Z,6.10
2018-08-12T13:16:23.906Z,5.23
2018-08-12T13:18:26.052Z,5.40
2018-08-12T13:20:28.234Z,5.57
2018-08-12T13:22:30.392Z,6.33
2018-08-12T13:24:32.534Z,5.67
2018-08-12T13:26:34.705Z,6.00
2018-08-12T13:28:36.861Z,5.50
2018-08-12T13:30:39.016Z,5.10
2018-08-12T13:32:42.240Z,5.50
2018-08-12T13:34:44.399Z,5.30
2018-08-12T13:36:46.537Z,5.13
2018-08-12T13:38:48.880Z,5.20
2018-08-12T13:40:51.086Z,5.43
2018-08-12T13:42:53.237Z,5.20
2018-08-12T13:44:55.385Z,4.50
2018-08-12T13:46:57.566Z,4.57
2018-08-12T13:48:59.762Z,5.07
2018-08-12T13:51:01.893Z,4.73
2018-08-12T13:53:04.165Z,5.17
2018-08-12T13:55:06.322Z,4.40
2018-08-12T13:57:08.528Z,5.20
2018-08-12T13:59:10.730Z,4.67
2018-08-12T14:01:12.998Z,4.80
2018-08-12T14:03:15.164Z,5.40
2018-08-12T14:05:17.613Z,5.10
2018-08-12T14:07:19.801Z,4.90
2018-08-12T14:09:21.957Z,5.33
2018-08-12T14:11:24.105Z,5.63
2018-08-12T14:13:26.429Z,4.80
2018-08-12T14:15:28.564Z,4.63
2018-08-12T14:17:30.743Z,4.40
2018-08-12T14:19:32.906Z,4.50
2018-08-12T14:21:35.449Z,4.40
2018-08-12T14:23:37.605Z,4.63
2018-08-12T14:25:39.792Z,4.40
2018-08-12T14:27:42.626Z,4.90
2018-08-12T14:29:44.757Z,4.60
2018-08-12T14:31:47.421Z,5.43
2018-08-12T14:33:49.572Z,6.40
2018-08-12T14:35:51.721Z,4.87
2018-08-12T14:37:53.971Z,4.87
2018-08-12T14:39:56.132Z,5.00
2018-08-12T14:41:58.272Z,3.97
2018-08-12T14:44:00.433Z,4.23
2018-08-12T14:46:02.598Z,4.20
2018-08-12T14:48:04.861Z,4.43
2018-08-12T14:50:08.303Z,4.07
2018-08-12T14:52:10.456Z,5.10
2018-08-12T14:54:12.614Z,3.83
2018-08-12T14:56:14.777Z,3.97
2018-08-12T14:58:16.935Z,3.60
2018-08-12T15:00:19.796Z,3.83
2018-08-12T15:02:22.002Z,3.40
2018-08-12T15:04:24.128Z,3.20
2018-08-12T15:06:26.345Z,3.43
2018-08-12T15:08:28.754Z,4.40
2018-08-12T15:10:30.898Z,4.90
2018-08-12T15:12:33.289Z,3.77
2018-08-12T15:14:35.581Z,3.53
2018-08-12T15:16:37.747Z,4.47
2018-08-12T15:18:39.931Z,3.43
2018-08-12T15:20:42.125Z,3.37
2018-08-12T15:22:44.336Z,3.60
2018-08-12T15:24:46.429Z,3.10
2018-08-12T15:26:48.653Z,2.80
2018-08-12T15:28:50.837Z,3.37
2018-08-12T15:30:53.024Z,3.40
2018-08-12T15:32:55.190Z,2.87
2018-08-12T15:34:57.359Z,3.70
2018-08-12T15:36:59.535Z,3.50
2018-08-12T15:39:01.754Z,3.30
2018-08-12T15:41:04.006Z,3.60
2018-08-12T15:43:06.318Z,4.03
2018-08-12T15:45:10.066Z,3.30
2018-08-12T15:47:12.212Z,3.57
2018-08-12T15:49:14.377Z,3.60
2018-08-12T15:51:16.530Z,3.60
2018-08-12T15:53:18.674Z,3.33
2018-08-12T15:55:21.116Z,3.00
2018-08-12T15:57:23.260Z,3.57
2018-08-12T15:59:25.912Z,3.87
2018-08-12T16:01:28.433Z,4.03
2018-08-12T16:03:31.149Z,4.40
2018-08-12T16:05:33.309Z,3.90
2018-08-12T16:07:35.578Z,3.73
2018-08-12T16:09:37.761Z,3.97
2018-08-12T16:11:41.031Z,3.33
2018-08-12T16:13:43.299Z,3.40
2018-08-12T16:15:45.770Z,3.67
2018-08-12T16:17:48.205Z,3.87
2018-08-12T16:19:50.402Z,3.80
2018-08-12T16:21:52.603Z,3.50
2018-08-12T16:23:54.784Z,3.87
2018-08-12T16:25:57.125Z,3.90
2018-08-12T16:27:59.379Z,3.33
2018-08-12T16:30:01.717Z,3.50
2018-08-12T16:32:03.950Z,3.40
2018-08-12T16:34:06.529Z,3.00
2018-08-12T16:36:09.829Z,3.80
2018-08-12T16:38:12.768Z,3.77
2018-08-12T16:40:16.612Z,3.50
2018-08-12T16:42:19.155Z,3.03
2018-08-12T16:44:21.449Z,3.33
2018-08-12T16:46:23.714Z,3.40
2018-08-12T16:48:25.928Z,3.60
2018-08-12T16:50:28.080Z,3.50
2018-08-12T16:52:30.259Z,4.33
2018-08-12T16:54:32.421Z,3.63
2018-08-12T16:56:34.614Z,3.87
2018-08-12T16:58:36.877Z,4.07
2018-08-12T17:00:39.033Z,3.57
2018-08-12T17:02:41.441Z,4.13
2018-08-12T17:04:43.688Z,4.10
2018-08-12T17:06:45.907Z,4.07
2018-08-12T17:08:48.059Z,4.27
2018-08-12T17:10:50.273Z,3.67
2018-08-12T17:12:52.469Z,3.90
2018-08-12T17:14:54.646Z,4.43
2018-08-12T17:16:56.834Z,3.80
2018-08-12T17:18:59.009Z,4.50
2018-08-12T17:21:01.198Z,3.97
2018-08-12T17:23:03.421Z,3.97
2018-08-12T17:25:06.144Z,4.20
2018-08-12T17:27:08.314Z,4.23
2018-08-12T17:29:10.745Z,4.23
2018-08-12T17:31:12.995Z,4.20
2018-08-12T17:33:15.169Z,5.60
2018-08-12T17:35:17.333Z,5.40
2018-08-12T17:37:19.696Z,5.00
2018-08-12T17:39:21.844Z,4.10
2018-08-12T17:41:24.033Z,4.07
2018-08-12T17:43:26.250Z,4.00
2018-08-12T17:45:28.418Z,3.80
2018-08-12T17:47:30.601Z,3.90
2018-08-12T17:49:32.770Z,3.77
2018-08-12T17:51:34.925Z,3.70
2018-08-12T17:53:37.069Z,3.60
2018-08-12T17:55:39.248Z,3.83
2018-08-12T17:57:41.407Z,3.60
2018-08-12T17:59:43.641Z,4.07
2018-08-12T18:01:45.851Z,3.70
2018-08-12T18:03:48.044Z,3.37
2018-08-12T18:05:50.390Z,3.50
2018-08-12T18:07:52.558Z,3.53
2018-08-12T18:09:54.762Z,3.90
2018-08-12T18:11:57.049Z,3.17
2018-08-12T18:13:59.222Z,3.77
2018-08-12T18:16:01.401Z,3.50
2018-08-12T18:18:03.581Z,3.73
2018-08-12T18:20:05.843Z,4.20
2018-08-12T18:22:08.005Z,3.83
2018-08-12T18:24:10.317Z,3.80
2018-08-12T18:26:12.652Z,3.80
2018-08-12T18:28:14.822Z,4.33
2018-08-12T18:30:16.976Z,3.50
2018-08-12T18:32:19.153Z,3.70
2018-08-12T18:34:21.309Z,3.90
2018-08-12T18:36:23.475Z,3.87
2018-08-12T18:38:25.645Z,4.10
2018-08-12T18:40:27.926Z,4.20
2018-08-12T18:42:30.226Z,3.80
2018-08-12T18:44:32.353Z,4.07
2018-08-12T18:46:34.553Z,3.80
2018-08-12T18:48:36.734Z,4.20
2018-08-12T18:50:38.893Z,3.97
2018-08-12T18:52:41.485Z,4.00
2018-08-12T18:54:43.638Z,3.30
2018-08-12T18:56:45.832Z,4.00
2018-08-12T18:58:50.829Z,4.30
2018-08-12T19:00:53.020Z,3.50
2018-08-12T19:02:55.553Z,3.77
2018-08-12T19:04:57.702Z,4.20
2018-08-12T19:06:59.873Z,4.27
2018-08-12T19:09:02.121Z,4.00
2018-08-12T19:11:04.337Z,4.00
2018-08-12T19:13:06.502Z,3.67
2018-08-12T19:15:09.705Z,4.00
2018-08-12T19:17:11.874Z,4.63
2018-08-12T19:19:14.030Z,4.23
2018-08-12T19:21:16.221Z,4.33
2018-08-12T19:23:18.425Z,4.67
2018-08-12T19:25:20.554Z,4.27
2018-08-12T19:27:22.814Z,4.23
2018-08-12T19:29:24.959Z,4.27
2018-08-12T19:31:27.114Z,4.37
2018-08-12T19:33:32.202Z,4.70
2018-08-12T19:35:34.385Z,4.10
2018-08-12T19:37:36.566Z,4.80
2018-08-12T19:39:38.785Z,4.30
2018-08-12T19:41:40.948Z,4.57
2018-08-12T19:43:43.137Z,4.13
2018-08-12T19:45:45.642Z,4.77
2018-08-12T19:47:47.809Z,4.33
2018-08-12T19:49:49.955Z,4.90
2018-08-12T19:51:52.146Z,4.20
2018-08-12T19:53:54.313Z,4.03
2018-08-12T19:55:56.481Z,4.67
2018-08-12T19:57:58.655Z,4.40
2018-08-12T20:00:00.869Z,4.33
2018-08-12T20:02:03.154Z,4.90
2018-08-12T20:04:05.333Z,4.50
2018-08-12T20:06:07.533Z,4.23
2018-08-12T20:08:09.730Z,4.50
2018-08-12T20:10:12.009Z,4.63
2018-08-12T20:12:14.312Z,4.90
2018-08-12T20:14:16.407Z,4.80
2018-08-12T20:16:18.554Z,4.70
2018-08-12T20:18:20.832Z,4.33
2018-08-12T20:20:22.999Z,4.60
2018-08-12T20:22:25.198Z,4.17
2018-08-12T20:24:27.389Z,4.50
2018-08-12T20:26:29.730Z,4.00
2018-08-12T20:28:31.936Z,4.37
2018-08-12T20:30:34.109Z,4.80
2018-08-12T20:32:50.727Z,5.00
2018-08-12T20:34:57.468Z,4.70
2018-08-12T20:36:59.601Z,4.27
2018-08-12T20:39:05.147Z,4.13
2018-08-12T20:41:07.541Z,4.80
2018-08-12T20:43:25.728Z,4.30
2018-08-12T20:45:40.019Z,4.70
2018-08-12T20:47:43.890Z,4.30
2018-08-12T20:49:46.085Z,4.33
2018-08-12T20:51:48.503Z,4.47
2018-08-12T20:53:50.678Z,4.80
2018-08-12T20:55:52.832Z,4.30
2018-08-12T20:57:55.025Z,4.60
2018-08-12T20:59:57.996Z,4.50
2018-08-12T21:02:00.169Z,4.67
2018-08-12T21:04:02.338Z,4.23
2018-08-12T21:06:04.489Z,4.10
2018-08-12T21:08:06.644Z,4.37
2018-08-12T21:10:09.437Z,4.53
2018-08-12T21:12:11.803Z,4.20
2018-08-12T21:14:13.838Z,4.30
2018-08-12T21:16:16.064Z,4.33
2018-08-12T21:18:18.203Z,4.50
2018-08-12T21:20:20.369Z,4.23
2018-08-12T21:22:22.697Z,4.10
2018-08-12T21:24:25.155Z,4.07
2018-08-12T21:26:27.290Z,4.60
2018-08-12T21:28:29.461Z,4.13
2018-08-12T21:30:31.607Z,4.43
2018-08-12T21:32:34.217Z,4.07
2018-08-12T21:34:36.473Z,4.50
2018-08-12T21:36:38.657Z,4.23
2018-08-12T21:38:40.816Z,4.87
2018-08-12T21:40:42.996Z,4.50
2018-08-12T21:42:45.144Z,3.73
2018-08-12T21:44:47.295Z,4.07
2018-08-12T21:46:49.467Z,4.13
2018-08-12T21:48:51.597Z,4.57
2018-08-12T21:50:53.823Z,4.60
2018-08-12T21:52:56.173Z,4.23
2018-08-12T21:54:58.331Z,4.80
2018-08-12T21:57:00.497Z,4.53
2018-08-12T21:59:02.808Z,3.77
2018-08-12T22:01:05.348Z,4.10
2018-08-12T22:03:07.498Z,4.17
2018-08-12T22:05:09.661Z,4.03
2018-08-12T22:07:11.864Z,4.50
2018-08-12T22:09:14.101Z,4.10
2018-08-12T22:11:16.273Z,4.00
2018-08-12T22:13:18.454Z,4.00
2018-08-12T22:15:20.621Z,4.77
2018-08-12T22:17:22.801Z,4.60
2018-08-12T22:19:24.996Z,3.90
2018-08-12T22:21:27.193Z,3.87
2018-08-12T22:23:29.393Z,4.30
2018-08-12T22:25:31.751Z,4.40
2018-08-12T22:27:33.984Z,4.27
2018-08-12T22:29:36.185Z,4.30
2018-08-12T22:31:38.725Z,4.13
2018-08-12T22:33:40.932Z,4.00
2018-08-12T22:35:43.117Z,4.27
2018-08-12T22:37:45.387Z,3.80
2018-08-12T22:39:47.614Z,4.13
2018-08-12T22:41:49.797Z,3.90
2018-08-12T22:43:52.036Z,3.93
2018-08-12T22:45:54.619Z,4.07
2018-08-12T22:47:56.838Z,3.80
2018-08-12T22:49:59.005Z,3.60
2018-08-12T22:52:01.174Z,4.23
2018-08-12T22:54:03.446Z,4.97
2018-08-12T22:56:05.663Z,5.00
2018-08-12T22:58:07.843Z,4.37
2018-08-12T23:00:16.363Z,3.60
2018-08-12T23:02:18.593Z,3.47
2018-08-12T23:04:20.792Z,4.90
2018-08-12T23:06:23.021Z,3.73
2018-08-12T23:08:25.226Z,4.20
2018-08-12T23:10:27.648Z,4.10
2018-08-12T23:12:29.810Z,3.93
2018-08-12T23:14:38.657Z,4.37
2018-08-12T23:16:52.337Z,3.93
2018-08-12T23:18:54.809Z,4.10
2018-08-12T23:20:57.034Z,4.40
2018-08-12T23:22:59.231Z,3.80
2018-08-12T23:25:01.473Z,4.10
2018-08-12T23:27:03.641Z,4.60
2018-08-12T23:29:05.838Z,4.40
2018-08-12T23:31:08.350Z,4.10
2018-08-12T23:33:10.530Z,3.63
2018-08-12T23:35:12.708Z,4.10
2018-08-12T23:37:14.913Z,4.30
2018-08-12T23:39:17.206Z,3.83
2018-08-12T23:41:19.614Z,4.50
2018-08-12T23:43:21.789Z,4.07
2018-08-12T23:45:24.023Z,4.40
2018-08-12T23:47:26.195Z,4.50
2018-08-12T23:49:28.370Z,4.77
2018-08-12T23:51:30.572Z,4.40
2018-08-12T23:53:41.503Z,4.40
2018-08-12T23:55:43.697Z,3.87
2018-08-12T23:57:45.861Z,4.37
2018-08-12T23:59:48.046Z,4.50
